sensor_id;sensor_type;location;lat;lon;timestamp;pressure;altitude;pressure_sealevel;temperature;humidity
64739;BME280;51175;51.186;0.276;2023-02-28T00:00:04;102808.31;;;10.76;66.03
64739;BME280;51175;51.186;0.276;2023-02-28T00:00:40;102810.13;;;10.76;66.15
64739;BME280;51175;51.186;0.276;2023-02-28T00:01:12;102815.41;;;10.76;66.14
64739;BME280;51175;51.186;0.276;2023-02-28T00:01:43;102813.59;;;10.76;65.97
64739;BME280;51175;51.186;0.276;2023-02-28T00:02:13;102810.13;;;10.76;66.03
64739;BME280;51175;51.186;0.276;2023-02-28T00:02:45;102807.50;;;10.76;66.01
64739;BME280;51175;51.186;0.276;2023-02-28T00:03:15;102807.50;;;10.76;65.98
64739;BME280;51175;51.186;0.276;2023-02-28T00:03:46;102807.50;;;10.76;65.92
64739;BME280;51175;51.186;0.276;2023-02-28T00:04:16;102815.41;;;10.76;66.12
64739;BME280;51175;51.186;0.276;2023-02-28T00:04:47;102807.50;;;10.76;66.04
64739;BME280;51175;51.186;0.276;2023-02-28T00:05:24;102808.50;;;10.75;66.00
64739;BME280;51175;51.186;0.276;2023-02-28T00:05:55;102811.16;;;10.75;66.09
64739;BME280;51175;51.186;0.276;2023-02-28T00:06:26;102805.06;;;10.74;66.00
64739;BME280;51175;51.186;0.276;2023-02-28T00:06:56;102808.50;;;10.75;66.09
64739;BME280;51175;51.186;0.276;2023-02-28T00:07:27;102811.16;;;10.75;66.05
64739;BME280;51175;51.186;0.276;2023-02-28T00:07:58;102813.81;;;10.75;66.07
64739;BME280;51175;51.186;0.276;2023-02-28T00:08:28;102811.16;;;10.75;66.00
64739;BME280;51175;51.186;0.276;2023-02-28T00:08:58;102807.69;;;10.74;66.12
64739;BME280;51175;51.186;0.276;2023-02-28T00:09:29;102804.22;;;10.74;65.98
64739;BME280;51175;51.186;0.276;2023-02-28T00:09:59;102812.97;;;10.74;66.15
64739;BME280;51175;51.186;0.276;2023-02-28T00:10:31;102812.97;;;10.74;66.12
64739;BME280;51175;51.186;0.276;2023-02-28T00:11:12;102813.81;;;10.75;66.18
64739;BME280;51175;51.186;0.276;2023-02-28T00:11:42;102812.16;;;10.74;66.10
64739;BME280;51175;51.186;0.276;2023-02-28T00:12:13;102816.66;;;10.73;65.86
64739;BME280;51175;51.186;0.276;2023-02-28T00:12:44;102816.66;;;10.73;66.00
64739;BME280;51175;51.186;0.276;2023-02-28T00:13:14;102814.78;;;10.74;65.92
64739;BME280;51175;51.186;0.276;2023-02-28T00:13:45;102814.78;;;10.74;65.97
64739;BME280;51175;51.186;0.276;2023-02-28T00:14:16;102816.66;;;10.73;66.05
64739;BME280;51175;51.186;0.276;2023-02-28T00:14:46;102816.66;;;10.73;65.95
64739;BME280;51175;51.186;0.276;2023-02-28T00:15:18;102815.81;;;10.73;65.95
64739;BME280;51175;51.186;0.276;2023-02-28T00:15:58;102810.53;;;10.73;65.92
64739;BME280;51175;51.186;0.276;2023-02-28T00:16:29;102821.94;;;10.73;65.92
64739;BME280;51175;51.186;0.276;2023-02-28T00:16:59;102815.81;;;10.73;65.92
64739;BME280;51175;51.186;0.276;2023-02-28T00:17:29;102815.00;;;10.72;66.04
64739;BME280;51175;51.186;0.276;2023-02-28T00:18:00;102818.47;;;10.73;66.07
64739;BME280;51175;51.186;0.276;2023-02-28T00:18:30;102818.47;;;10.73;66.11
64739;BME280;51175;51.186;0.276;2023-02-28T00:19:01;102822.94;;;10.72;65.84
64739;BME280;51175;51.186;0.276;2023-02-28T00:19:31;102821.13;;;10.73;66.04
64739;BME280;51175;51.186;0.276;2023-02-28T00:20:02;102814.22;;;10.72;65.95
64739;BME280;51175;51.186;0.276;2023-02-28T00:20:34;102818.47;;;10.73;65.92
64739;BME280;51175;51.186;0.276;2023-02-28T00:21:05;102815.81;;;10.73;65.93
64739;BME280;51175;51.186;0.276;2023-02-28T00:21:36;102810.53;;;10.73;66.07
64739;BME280;51175;51.186;0.276;2023-02-28T00:22:06;102820.28;;;10.72;65.99
64739;BME280;51175;51.186;0.276;2023-02-28T00:22:41;102821.13;;;10.73;65.85
64739;BME280;51175;51.186;0.276;2023-02-28T00:23:12;102822.13;;;10.72;65.92
64739;BME280;51175;51.186;0.276;2023-02-28T00:23:43;102817.66;;;10.72;66.05
64739;BME280;51175;51.186;0.276;2023-02-28T00:24:14;102818.66;;;10.71;66.01
64739;BME280;51175;51.186;0.276;2023-02-28T00:24:44;102817.66;;;10.72;66.01
64739;BME280;51175;51.186;0.276;2023-02-28T00:25:18;102818.66;;;10.71;65.94
64739;BME280;51175;51.186;0.276;2023-02-28T00:25:48;102818.66;;;10.71;65.81
64739;BME280;51175;51.186;0.276;2023-02-28T00:26:20;102817.84;;;10.71;65.92
64739;BME280;51175;51.186;0.276;2023-02-28T00:26:50;102815.22;;;10.71;65.92
64739;BME280;51175;51.186;0.276;2023-02-28T00:27:20;102823.97;;;10.71;65.97
64739;BME280;51175;51.186;0.276;2023-02-28T00:27:51;102817.84;;;10.71;66.07
64739;BME280;51175;51.186;0.276;2023-02-28T00:28:22;102812.56;;;10.71;66.02
64739;BME280;51175;51.186;0.276;2023-02-28T00:28:52;102823.34;;;10.69;65.92
64739;BME280;51175;51.186;0.276;2023-02-28T00:29:23;102821.53;;;10.70;66.16
64739;BME280;51175;51.186;0.276;2023-02-28T00:29:53;102821.53;;;10.70;66.06
64739;BME280;51175;51.186;0.276;2023-02-28T00:30:24;102822.53;;;10.68;66.04
64739;BME280;51175;51.186;0.276;2023-02-28T00:30:54;102823.34;;;10.69;66.15
64739;BME280;51175;51.186;0.276;2023-02-28T00:31:25;102819.91;;;10.68;66.07
64739;BME280;51175;51.186;0.276;2023-02-28T00:31:55;102825.19;;;10.68;66.04
64739;BME280;51175;51.186;0.276;2023-02-28T00:32:25;102819.91;;;10.68;66.07
64739;BME280;51175;51.186;0.276;2023-02-28T00:32:56;102819.06;;;10.68;66.05
64739;BME280;51175;51.186;0.276;2023-02-28T00:33:27;102811.97;;;10.68;66.02
64739;BME280;51175;51.186;0.276;2023-02-28T00:33:58;102821.72;;;10.68;65.89
64739;BME280;51175;51.186;0.276;2023-02-28T00:34:28;102818.25;;;10.67;66.04
64739;BME280;51175;51.186;0.276;2023-02-28T00:34:58;102819.91;;;10.68;65.90
64739;BME280;51175;51.186;0.276;2023-02-28T00:35:29;102818.25;;;10.67;66.05
64739;BME280;51175;51.186;0.276;2023-02-28T00:36:04;102821.72;;;10.68;65.99
64739;BME280;51175;51.186;0.276;2023-02-28T00:36:35;102819.91;;;10.68;66.01
64739;BME280;51175;51.186;0.276;2023-02-28T00:37:07;102822.75;;;10.67;66.02
64739;BME280;51175;51.186;0.276;2023-02-28T00:37:38;102815.63;;;10.67;65.86
64739;BME280;51175;51.186;0.276;2023-02-28T00:38:08;102812.97;;;10.67;65.97
64739;BME280;51175;51.186;0.276;2023-02-28T00:38:40;102813.78;;;10.68;66.05
64739;BME280;51175;51.186;0.276;2023-02-28T00:39:11;102824.38;;;10.68;66.00
64739;BME280;51175;51.186;0.276;2023-02-28T00:39:41;102819.06;;;10.68;66.07
64739;BME280;51175;51.186;0.276;2023-02-28T00:40:12;102826.19;;;10.67;65.88
64739;BME280;51175;51.186;0.276;2023-02-28T00:40:43;102816.63;;;10.66;65.83
64739;BME280;51175;51.186;0.276;2023-02-28T00:41:13;102826.19;;;10.67;65.85
64739;BME280;51175;51.186;0.276;2023-02-28T00:41:43;102823.53;;;10.67;65.89
64739;BME280;51175;51.186;0.276;2023-02-28T00:42:14;102825.38;;;10.67;66.00
64739;BME280;51175;51.186;0.276;2023-02-28T00:42:44;102821.09;;;10.66;66.03
64739;BME280;51175;51.186;0.276;2023-02-28T00:43:14;102826.38;;;10.66;65.97
64739;BME280;51175;51.186;0.276;2023-02-28T00:43:45;102827.22;;;10.66;66.01
64739;BME280;51175;51.186;0.276;2023-02-28T00:44:15;102826.38;;;10.66;66.13
64739;BME280;51175;51.186;0.276;2023-02-28T00:44:45;102831.66;;;10.66;66.20
64739;BME280;51175;51.186;0.276;2023-02-28T00:45:16;102828.19;;;10.65;65.98
64739;BME280;51175;51.186;0.276;2023-02-28T00:45:46;102828.19;;;10.65;66.12
64739;BME280;51175;51.186;0.276;2023-02-28T00:46:17;102825.56;;;10.65;65.99
64739;BME280;51175;51.186;0.276;2023-02-28T00:46:47;102824.78;;;10.65;66.08
64739;BME280;51175;51.186;0.276;2023-02-28T00:47:17;102828.19;;;10.65;66.18
64739;BME280;51175;51.186;0.276;2023-02-28T00:47:48;102821.31;;;10.64;66.03
64739;BME280;51175;51.186;0.276;2023-02-28T00:48:19;102818.66;;;10.64;65.78
64739;BME280;51175;51.186;0.276;2023-02-28T00:48:50;102820.47;;;10.64;66.11
64739;BME280;51175;51.186;0.276;2023-02-28T00:49:21;102818.66;;;10.64;65.99
64739;BME280;51175;51.186;0.276;2023-02-28T00:49:51;102819.47;;;10.65;65.90
64739;BME280;51175;51.186;0.276;2023-02-28T00:50:21;102823.94;;;10.64;65.89
64739;BME280;51175;51.186;0.276;2023-02-28T00:50:52;102821.31;;;10.64;65.90
64739;BME280;51175;51.186;0.276;2023-02-28T00:51:22;102821.31;;;10.64;66.02
64739;BME280;51175;51.186;0.276;2023-02-28T00:51:54;102818.66;;;10.64;66.11
64739;BME280;51175;51.186;0.276;2023-02-28T00:52:24;102817.84;;;10.64;66.09
64739;BME280;51175;51.186;0.276;2023-02-28T00:52:55;102816.00;;;10.64;66.12
64739;BME280;51175;51.186;0.276;2023-02-28T00:53:25;102823.13;;;10.64;66.20
64739;BME280;51175;51.186;0.276;2023-02-28T00:53:56;102818.66;;;10.64;66.15
64739;BME280;51175;51.186;0.276;2023-02-28T00:54:26;102823.13;;;10.64;66.03
64739;BME280;51175;51.186;0.276;2023-02-28T00:54:56;102819.69;;;10.63;66.06
64739;BME280;51175;51.186;0.276;2023-02-28T00:55:27;102817.03;;;10.63;65.92
64739;BME280;51175;51.186;0.276;2023-02-28T00:55:57;102817.03;;;10.63;66.02
64739;BME280;51175;51.186;0.276;2023-02-28T00:56:28;102817.84;;;10.64;66.21
64739;BME280;51175;51.186;0.276;2023-02-28T00:56:59;102809.13;;;10.63;65.98
64739;BME280;51175;51.186;0.276;2023-02-28T00:57:30;102817.03;;;10.63;66.10
64739;BME280;51175;51.186;0.276;2023-02-28T00:58:00;102813.56;;;10.63;66.10
64739;BME280;51175;51.186;0.276;2023-02-28T00:58:30;102814.41;;;10.63;65.89
64739;BME280;51175;51.186;0.276;2023-02-28T00:59:01;102820.69;;;10.62;66.01
64739;BME280;51175;51.186;0.276;2023-02-28T00:59:31;102818.03;;;10.62;66.02
64739;BME280;51175;51.186;0.276;2023-02-28T01:00:02;102816.22;;;10.63;65.89
64739;BME280;51175;51.186;0.276;2023-02-28T01:00:34;102810.94;;;10.63;65.81
64739;BME280;51175;51.186;0.276;2023-02-28T01:01:04;102812.75;;;10.62;65.86
64739;BME280;51175;51.186;0.276;2023-02-28T01:01:35;102815.41;;;10.62;65.86
64739;BME280;51175;51.186;0.276;2023-02-28T01:02:05;102816.22;;;10.63;65.92
64739;BME280;51175;51.186;0.276;2023-02-28T01:02:36;102813.78;;;10.61;65.92
64739;BME280;51175;51.186;0.276;2023-02-28T01:03:06;102816.22;;;10.63;65.84
64739;BME280;51175;51.186;0.276;2023-02-28T01:03:36;102812.75;;;10.62;65.92
64739;BME280;51175;51.186;0.276;2023-02-28T01:04:07;102813.78;;;10.61;65.96
64739;BME280;51175;51.186;0.276;2023-02-28T01:04:37;102815.41;;;10.62;65.94
64739;BME280;51175;51.186;0.276;2023-02-28T01:05:08;102811.97;;;10.62;66.00
64739;BME280;51175;51.186;0.276;2023-02-28T01:05:38;102811.13;;;10.61;66.01
64739;BME280;51175;51.186;0.276;2023-02-28T01:06:08;102814.59;;;10.62;65.94
64739;BME280;51175;51.186;0.276;2023-02-28T01:06:39;102818.88;;;10.63;65.76
64739;BME280;51175;51.186;0.276;2023-02-28T01:07:09;102813.78;;;10.61;66.01
64739;BME280;51175;51.186;0.276;2023-02-28T01:07:40;102811.97;;;10.62;65.86
64739;BME280;51175;51.186;0.276;2023-02-28T01:08:10;102811.13;;;10.61;65.74
64739;BME280;51175;51.186;0.276;2023-02-28T01:08:40;102824.34;;;10.61;65.85
64739;BME280;51175;51.186;0.276;2023-02-28T01:09:11;102816.41;;;10.61;65.85
64739;BME280;51175;51.186;0.276;2023-02-28T01:09:42;102815.59;;;10.61;65.84
64739;BME280;51175;51.186;0.276;2023-02-28T01:10:12;102819.06;;;10.61;65.86
64739;BME280;51175;51.186;0.276;2023-02-28T01:10:42;102814.81;;;10.60;65.79
64739;BME280;51175;51.186;0.276;2023-02-28T01:11:15;102820.09;;;10.60;65.97
64739;BME280;51175;51.186;0.276;2023-02-28T01:11:46;102822.72;;;10.60;65.98
64739;BME280;51175;51.186;0.276;2023-02-28T01:12:16;102822.72;;;10.60;65.95
64739;BME280;51175;51.186;0.276;2023-02-28T01:12:46;102821.91;;;10.60;66.05
64739;BME280;51175;51.186;0.276;2023-02-28T01:13:17;102824.56;;;10.60;65.99
64739;BME280;51175;51.186;0.276;2023-02-28T01:13:48;102822.72;;;10.60;66.13
64739;BME280;51175;51.186;0.276;2023-02-28T01:14:18;102821.09;;;10.59;66.05
64739;BME280;51175;51.186;0.276;2023-02-28T01:14:49;102818.44;;;10.59;66.17
64739;BME280;51175;51.186;0.276;2023-02-28T01:15:19;102821.91;;;10.60;66.10
64739;BME280;51175;51.186;0.276;2023-02-28T01:15:51;102815.59;;;10.61;66.06
64739;BME280;51175;51.186;0.276;2023-02-28T01:16:23;102819.25;;;10.60;65.97
64739;BME280;51175;51.186;0.276;2023-02-28T01:16:53;102813.16;;;10.59;65.98
64739;BME280;51175;51.186;0.276;2023-02-28T01:17:23;102813.16;;;10.59;66.00
64739;BME280;51175;51.186;0.276;2023-02-28T01:17:54;102816.63;;;10.60;66.09
64739;BME280;51175;51.186;0.276;2023-02-28T01:18:24;102813.16;;;10.59;66.02
64739;BME280;51175;51.186;0.276;2023-02-28T01:18:55;102813.97;;;10.60;66.03
64739;BME280;51175;51.186;0.276;2023-02-28T01:19:26;102814.19;;;10.58;66.11
64739;BME280;51175;51.186;0.276;2023-02-28T01:19:56;102813.16;;;10.59;65.95
64739;BME280;51175;51.186;0.276;2023-02-28T01:20:26;102816.81;;;10.58;66.22
64739;BME280;51175;51.186;0.276;2023-02-28T01:20:57;102815.00;;;10.59;65.96
64739;BME280;51175;51.186;0.276;2023-02-28T01:21:27;102815.78;;;10.59;66.00
64739;BME280;51175;51.186;0.276;2023-02-28T01:22:04;102815.78;;;10.59;65.97
64739;BME280;51175;51.186;0.276;2023-02-28T01:22:35;102821.91;;;10.60;65.88
64739;BME280;51175;51.186;0.276;2023-02-28T01:23:05;102815.00;;;10.59;65.85
64739;BME280;51175;51.186;0.276;2023-02-28T01:23:36;102817.66;;;10.59;65.75
64739;BME280;51175;51.186;0.276;2023-02-28T01:24:06;102821.28;;;10.58;65.99
64739;BME280;51175;51.186;0.276;2023-02-28T01:24:37;102813.34;;;10.58;65.92
64739;BME280;51175;51.186;0.276;2023-02-28T01:25:08;102821.28;;;10.58;66.02
64739;BME280;51175;51.186;0.276;2023-02-28T01:25:38;102818.66;;;10.58;65.96
64739;BME280;51175;51.186;0.276;2023-02-28T01:26:20;102819.66;;;10.57;65.98
64739;BME280;51175;51.186;0.276;2023-02-28T01:26:51;102823.94;;;10.58;66.08
64739;BME280;51175;51.186;0.276;2023-02-28T01:27:22;102821.50;;;10.56;66.16
64739;BME280;51175;51.186;0.276;2023-02-28T01:27:52;102818.06;;;10.55;66.23
64739;BME280;51175;51.186;0.276;2023-02-28T01:28:22;102826.78;;;10.56;66.00
64739;BME280;51175;51.186;0.276;2023-02-28T01:28:53;102820.69;;;10.55;66.22
64739;BME280;51175;51.186;0.276;2023-02-28T01:29:23;102820.69;;;10.55;66.02
64739;BME280;51175;51.186;0.276;2023-02-28T01:29:54;102821.50;;;10.56;65.91
64739;BME280;51175;51.186;0.276;2023-02-28T01:30:24;102816.22;;;10.56;66.01
64739;BME280;51175;51.186;0.276;2023-02-28T01:30:54;102818.06;;;10.55;66.18
64739;BME280;51175;51.186;0.276;2023-02-28T01:31:26;102817.22;;;10.55;65.99
64739;BME280;51175;51.186;0.276;2023-02-28T01:31:56;102818.84;;;10.56;66.13
64739;BME280;51175;51.186;0.276;2023-02-28T01:32:29;102817.22;;;10.55;66.00
64739;BME280;51175;51.186;0.276;2023-02-28T01:32:59;102817.22;;;10.55;66.19
64739;BME280;51175;51.186;0.276;2023-02-28T01:33:30;102816.41;;;10.54;66.06
64739;BME280;51175;51.186;0.276;2023-02-28T01:34:00;102814.59;;;10.55;66.07
64739;BME280;51175;51.186;0.276;2023-02-28T01:34:31;102819.03;;;10.54;66.12
64739;BME280;51175;51.186;0.276;2023-02-28T01:35:01;102820.91;;;10.54;65.99
64739;BME280;51175;51.186;0.276;2023-02-28T01:35:33;102825.16;;;10.55;66.03
64739;BME280;51175;51.186;0.276;2023-02-28T01:36:10;102828.81;;;10.54;66.00
64739;BME280;51175;51.186;0.276;2023-02-28T01:36:41;102819.25;;;10.53;66.03
64739;BME280;51175;51.186;0.276;2023-02-28T01:37:11;102818.25;;;10.54;66.05
64739;BME280;51175;51.186;0.276;2023-02-28T01:37:42;102826.97;;;10.54;66.08
64739;BME280;51175;51.186;0.276;2023-02-28T01:38:12;102829.81;;;10.53;65.98
64739;BME280;51175;51.186;0.276;2023-02-28T01:38:43;102825.34;;;10.53;66.04
64739;BME280;51175;51.186;0.276;2023-02-28T01:39:13;102829.81;;;10.53;66.08
64739;BME280;51175;51.186;0.276;2023-02-28T01:39:44;102820.06;;;10.53;65.96
64739;BME280;51175;51.186;0.276;2023-02-28T01:40:14;102826.38;;;10.52;66.12
64739;BME280;51175;51.186;0.276;2023-02-28T01:40:45;102826.38;;;10.52;65.91
64739;BME280;51175;51.186;0.276;2023-02-28T01:41:21;102826.38;;;10.52;66.09
64739;BME280;51175;51.186;0.276;2023-02-28T01:41:52;102819.25;;;10.53;66.15
64739;BME280;51175;51.186;0.276;2023-02-28T01:42:22;102820.28;;;10.52;66.05
64739;BME280;51175;51.186;0.276;2023-02-28T01:42:53;102828.19;;;10.52;66.07
64739;BME280;51175;51.186;0.276;2023-02-28T01:43:26;102818.47;;;10.52;66.05
64739;BME280;51175;51.186;0.276;2023-02-28T01:45:29;102824.72;;;10.51;66.02
64739;BME280;51175;51.186;0.276;2023-02-28T01:46:00;102818.66;;;10.51;65.95
64739;BME280;51175;51.186;0.276;2023-02-28T01:46:31;102821.31;;;10.51;65.90
64739;BME280;51175;51.186;0.276;2023-02-28T01:47:02;102825.75;;;10.50;66.13
64739;BME280;51175;51.186;0.276;2023-02-28T01:47:35;102828.41;;;10.50;66.19
64739;BME280;51175;51.186;0.276;2023-02-28T01:48:08;102821.50;;;10.49;66.18
64739;BME280;51175;51.186;0.276;2023-02-28T01:49:04;102821.50;;;10.49;66.16
64739;BME280;51175;51.186;0.276;2023-02-28T01:49:35;102815.41;;;10.49;66.10
64739;BME280;51175;51.186;0.276;2023-02-28T01:50:10;102821.69;;;10.48;66.06
64739;BME280;51175;51.186;0.276;2023-02-28T01:50:44;102819.84;;;10.48;66.17
64739;BME280;51175;51.186;0.276;2023-02-28T01:51:46;102816.41;;;10.48;66.18
64739;BME280;51175;51.186;0.276;2023-02-28T01:52:21;102820.88;;;10.47;66.12
64739;BME280;51175;51.186;0.276;2023-02-28T01:52:56;102818.25;;;10.47;66.25
64739;BME280;51175;51.186;0.276;2023-02-28T01:53:37;102821.91;;;10.46;66.19
64739;BME280;51175;51.186;0.276;2023-02-28T01:54:14;102808.88;;;10.45;66.13
64739;BME280;51175;51.186;0.276;2023-02-28T01:54:51;102809.84;;;10.43;66.29
64739;BME280;51175;51.186;0.276;2023-02-28T01:55:23;102815.97;;;10.44;66.22
64739;BME280;51175;51.186;0.276;2023-02-28T01:55:58;102814.34;;;10.43;66.29
64739;BME280;51175;51.186;0.276;2023-02-28T01:56:32;102818.59;;;10.44;66.30
64739;BME280;51175;51.186;0.276;2023-02-28T01:57:09;102812.50;;;10.43;66.14
64739;BME280;51175;51.186;0.276;2023-02-28T01:57:46;102812.50;;;10.43;66.10
64739;BME280;51175;51.186;0.276;2023-02-28T01:58:18;102809.84;;;10.43;66.23
64739;BME280;51175;51.186;0.276;2023-02-28T01:58:51;102813.53;;;10.42;66.22
64739;BME280;51175;51.186;0.276;2023-02-28T01:59:29;102815.34;;;10.42;66.16
64739;BME280;51175;51.186;0.276;2023-02-28T02:00:14;102811.91;;;10.41;66.22
64739;BME280;51175;51.186;0.276;2023-02-28T02:00:45;102814.56;;;10.41;66.04
64739;BME280;51175;51.186;0.276;2023-02-28T02:01:16;102813.72;;;10.41;66.27
64739;BME280;51175;51.186;0.276;2023-02-28T02:01:53;102816.38;;;10.41;66.03
64739;BME280;51175;51.186;0.276;2023-02-28T02:02:27;102820.03;;;10.40;66.24
64739;BME280;51175;51.186;0.276;2023-02-28T02:03:06;102810.25;;;10.40;66.08
64739;BME280;51175;51.186;0.276;2023-02-28T02:03:38;102814.75;;;10.40;66.08
64739;BME280;51175;51.186;0.276;2023-02-28T02:04:09;102815.53;;;10.40;66.04
64739;BME280;51175;51.186;0.276;2023-02-28T02:04:51;102816.56;;;10.39;66.14
64739;BME280;51175;51.186;0.276;2023-02-28T02:05:26;102818.38;;;10.39;66.26
64739;BME280;51175;51.186;0.276;2023-02-28T02:05:56;102811.28;;;10.39;66.39
64739;BME280;51175;51.186;0.276;2023-02-28T02:06:34;102814.94;;;10.38;66.11
64739;BME280;51175;51.186;0.276;2023-02-28T02:07:07;102821.03;;;10.39;66.26
64739;BME280;51175;51.186;0.276;2023-02-28T02:07:40;102820.25;;;10.38;66.19
64739;BME280;51175;51.186;0.276;2023-02-28T02:08:14;102818.38;;;10.39;66.09
64739;BME280;51175;51.186;0.276;2023-02-28T02:08:45;102814.94;;;10.38;66.25
64739;BME280;51175;51.186;0.276;2023-02-28T02:09:16;102821.22;;;10.37;66.31
64739;BME280;51175;51.186;0.276;2023-02-28T02:09:46;102817.78;;;10.37;66.23
64739;BME280;51175;51.186;0.276;2023-02-28T02:10:20;102815.16;;;10.37;66.09
64739;BME280;51175;51.186;0.276;2023-02-28T02:10:54;102818.78;;;10.36;66.21
64739;BME280;51175;51.186;0.276;2023-02-28T02:11:27;102816.16;;;10.36;66.34
64739;BME280;51175;51.186;0.276;2023-02-28T02:12:10;102818.00;;;10.35;66.28
64739;BME280;51175;51.186;0.276;2023-02-28T02:13:10;102816.16;;;10.36;66.23
64739;BME280;51175;51.186;0.276;2023-02-28T02:15:09;102816.34;;;10.34;66.07
64739;BME280;51175;51.186;0.276;2023-02-28T02:17:15;102814.72;;;10.33;66.19
64739;BME280;51175;51.186;0.276;2023-02-28T02:17:52;102815.72;;;10.32;66.26
64739;BME280;51175;51.186;0.276;2023-02-28T02:19:51;102814.94;;;10.31;66.18
64739;BME280;51175;51.186;0.276;2023-02-28T02:25:42;102819.38;;;10.24;66.38
64739;BME280;51175;51.186;0.276;2023-02-28T02:28:17;102821.22;;;10.24;66.51
64739;BME280;51175;51.186;0.276;2023-02-28T02:30:14;102821.41;;;10.22;66.30
64739;BME280;51175;51.186;0.276;2023-02-28T02:35:05;102822.81;;;10.18;66.57
64739;BME280;51175;51.186;0.276;2023-02-28T02:36:51;102823.81;;;10.17;66.53
64739;BME280;51175;51.186;0.276;2023-02-28T02:38:29;102822.22;;;10.16;66.44
64739;BME280;51175;51.186;0.276;2023-02-28T02:38:48;102822.22;;;10.16;66.44
64739;BME280;51175;51.186;0.276;2023-02-28T02:41:15;102825.06;;;10.14;66.68
64739;BME280;51175;51.186;0.276;2023-02-28T02:41:48;102816.31;;;10.14;66.64
64739;BME280;51175;51.186;0.276;2023-02-28T02:42:26;102818.13;;;10.13;66.75
64739;BME280;51175;51.186;0.276;2023-02-28T02:43:11;102818.94;;;10.14;66.58
64739;BME280;51175;51.186;0.276;2023-02-28T02:43:54;102823.41;;;10.13;66.59
64739;BME280;51175;51.186;0.276;2023-02-28T02:44:55;102819.16;;;10.12;66.73
64739;BME280;51175;51.186;0.276;2023-02-28T02:45:39;102822.59;;;10.13;66.73
64739;BME280;51175;51.186;0.276;2023-02-28T02:46:17;102821.78;;;10.12;66.66
64739;BME280;51175;51.186;0.276;2023-02-28T02:46:53;102821.78;;;10.12;66.58
64739;BME280;51175;51.186;0.276;2023-02-28T02:47:26;102814.88;;;10.11;66.60
64739;BME280;51175;51.186;0.276;2023-02-28T02:47:59;102819.16;;;10.12;66.64
64739;BME280;51175;51.186;0.276;2023-02-28T02:48:33;102810.41;;;10.12;66.80
64739;BME280;51175;51.186;0.276;2023-02-28T02:49:09;102815.69;;;10.12;66.75
64739;BME280;51175;51.186;0.276;2023-02-28T02:49:48;102816.50;;;10.12;66.64
64739;BME280;51175;51.186;0.276;2023-02-28T02:50:26;102826.03;;;10.13;66.53
64739;BME280;51175;51.186;0.276;2023-02-28T02:51:01;102825.25;;;10.13;66.50
64739;BME280;51175;51.186;0.276;2023-02-28T02:51:35;102822.59;;;10.13;66.61
64739;BME280;51175;51.186;0.276;2023-02-28T02:52:09;102822.59;;;10.13;66.54
64739;BME280;51175;51.186;0.276;2023-02-28T02:52:45;102818.31;;;10.12;66.63
64739;BME280;51175;51.186;0.276;2023-02-28T02:53:19;102824.22;;;10.14;66.51
64739;BME280;51175;51.186;0.276;2023-02-28T02:53:55;102826.03;;;10.13;66.66
64739;BME280;51175;51.186;0.276;2023-02-28T02:54:29;102826.03;;;10.13;66.53
64739;BME280;51175;51.186;0.276;2023-02-28T02:55:02;102824.22;;;10.14;66.56
64739;BME280;51175;51.186;0.276;2023-02-28T02:55:37;102825.06;;;10.14;66.49
64739;BME280;51175;51.186;0.276;2023-02-28T02:56:09;102820.75;;;10.13;66.41
64739;BME280;51175;51.186;0.276;2023-02-28T02:56:44;102823.19;;;10.15;66.58
64739;BME280;51175;51.186;0.276;2023-02-28T02:57:21;102825.84;;;10.15;66.58
64739;BME280;51175;51.186;0.276;2023-02-28T02:58:02;102825.84;;;10.15;66.53
64739;BME280;51175;51.186;0.276;2023-02-28T02:58:37;102824.03;;;10.15;66.46
64739;BME280;51175;51.186;0.276;2023-02-28T02:59:14;102824.03;;;10.15;66.36
64739;BME280;51175;51.186;0.276;2023-02-28T02:59:52;102821.38;;;10.15;66.58
64739;BME280;51175;51.186;0.276;2023-02-28T03:00:30;102819.78;;;10.14;66.41
64739;BME280;51175;51.186;0.276;2023-02-28T03:01:03;102817.91;;;10.15;66.49
64739;BME280;51175;51.186;0.276;2023-02-28T03:01:36;102822.41;;;10.14;66.48
64739;BME280;51175;51.186;0.276;2023-02-28T03:02:11;102820.56;;;10.15;66.29
64739;BME280;51175;51.186;0.276;2023-02-28T03:02:43;102823.00;;;10.16;66.50
64739;BME280;51175;51.186;0.276;2023-02-28T03:03:16;102817.91;;;10.15;66.41
64739;BME280;51175;51.186;0.276;2023-02-28T03:03:48;102823.19;;;10.15;66.53
64739;BME280;51175;51.186;0.276;2023-02-28T03:04:21;102824.84;;;10.16;66.42
64739;BME280;51175;51.186;0.276;2023-02-28T03:04:54;102823.00;;;10.16;66.55
64739;BME280;51175;51.186;0.276;2023-02-28T03:05:39;102824.03;;;10.15;66.41
64739;BME280;51175;51.186;0.276;2023-02-28T03:06:11;102826.66;;;10.15;66.21
64739;BME280;51175;51.186;0.276;2023-02-28T03:06:42;102825.84;;;10.15;66.30
64739;BME280;51175;51.186;0.276;2023-02-28T03:07:12;102815.28;;;10.15;66.37
64739;BME280;51175;51.186;0.276;2023-02-28T03:07:42;102826.66;;;10.15;66.57
64739;BME280;51175;51.186;0.276;2023-02-28T03:08:13;102819.78;;;10.14;66.24
64739;BME280;51175;51.186;0.276;2023-02-28T03:08:44;102820.56;;;10.15;66.21
64739;BME280;51175;51.186;0.276;2023-02-28T03:09:14;102827.50;;;10.16;66.43
64739;BME280;51175;51.186;0.276;2023-02-28T03:09:53;102824.03;;;10.15;66.45
64739;BME280;51175;51.186;0.276;2023-02-28T03:11:00;102826.66;;;10.15;66.25
64739;BME280;51175;51.186;0.276;2023-02-28T03:11:31;102818.75;;;10.15;66.30
64739;BME280;51175;51.186;0.276;2023-02-28T03:12:03;102818.75;;;10.15;66.32
64739;BME280;51175;51.186;0.276;2023-02-28T03:12:41;102817.91;;;10.15;66.31
64739;BME280;51175;51.186;0.276;2023-02-28T03:16:17;102820.75;;;10.13;66.18
64739;BME280;51175;51.186;0.276;2023-02-28T03:18:34;102815.69;;;10.12;66.38